Time;durP1;ratioP1;P1;durP2;ratioP2;P2;SDS_P1;SDS_P2;PMS_P1;PMS_P2;Temp;Humidity;BMP_temperature;BMP_pressure;BME280_temperature;BME280_humidity;BME280_pressure;Samples;Min_cycle;Max_cycle;Signal;HPM_P1;HPM_P2
2023/09/14 00:00:13;;;;;;;1.90;1.63;;;;;;;15.67;70.21;102152.56;5036017;28;20568;-65
2023/09/14 00:02:38;;;;;;;3.65;1.65;;;;;;;15.64;69.29;102168.66;5056027;28;20495;-65
2023/09/14 00:05:05;;;;;;;1.85;1.48;;;;;;;15.59;69.83;102165.28;5059133;28;20103;-65
2023/09/14 00:07:30;;;;;;;3.40;1.63;;;;;;;15.57;69.79;102165.34;5055514;28;20292;-65
2023/09/14 00:09:55;;;;;;;5.15;1.90;;;;;;;15.55;69.55;102169.00;5058244;28;20115;-64
2023/09/14 00:12:21;;;;;;;4.97;1.85;;;;;;;15.56;69.86;102162.72;5056975;28;20029;-64
2023/09/14 00:14:46;;;;;;;2.33;1.63;;;;;;;15.56;69.73;102157.41;5053821;28;20596;-65
2023/09/14 00:17:11;;;;;;;2.20;1.80;;;;;;;15.61;69.85;102167.88;5052484;28;20029;-65
2023/09/14 00:19:36;;;;;;;2.20;1.58;;;;;;;15.63;69.78;102169.56;5054105;28;20112;-64
2023/09/14 00:22:02;;;;;;;1.60;1.38;;;;;;;15.63;69.52;102174.91;5047221;28;20086;-64
2023/09/14 00:24:27;;;;;;;3.53;1.33;;;;;;;15.55;69.21;102169.88;5048709;28;20021;-65
2023/09/14 00:26:52;;;;;;;1.40;1.30;;;;;;;15.46;68.89;102174.69;5056463;28;20048;-64
2023/09/14 00:29:18;;;;;;;3.58;1.80;;;;;;;15.39;69.20;102165.19;5047015;28;20477;-64
2023/09/14 00:31:43;;;;;;;2.03;1.65;;;;;;;15.37;70.71;102170.59;5048439;28;20032;-64
2023/09/14 00:34:08;;;;;;;2.10;1.80;;;;;;;15.36;70.30;102168.00;5049608;28;20033;-64
2023/09/14 00:36:33;;;;;;;3.17;1.77;;;;;;;15.36;69.49;102165.31;5047909;28;20468;-64
2023/09/14 00:38:59;;;;;;;2.20;1.80;;;;;;;15.13;70.18;102168.88;5055016;28;20328;-65
2023/09/14 00:41:24;;;;;;;4.32;2.42;;;;;;;14.89;71.20;102154.69;5050591;28;20522;-65
2023/09/14 00:43:49;;;;;;;5.13;2.53;;;;;;;14.78;71.61;102163.03;5048859;28;20025;-65
2023/09/14 00:46:15;;;;;;;7.93;2.60;;;;;;;14.79;71.67;102167.47;5050022;28;20032;-65
2023/09/14 00:48:40;;;;;;;2.92;2.20;;;;;;;14.81;71.83;102160.28;5048968;28;20376;-65
2023/09/14 00:51:06;;;;;;;6.00;1.80;;;;;;;14.56;71.92;102173.63;5053844;28;20048;-65
2023/09/14 00:53:32;;;;;;;4.00;2.00;;;;;;;14.41;72.32;102166.13;5045861;28;20024;-65
2023/09/14 00:55:58;;;;;;;2.58;1.90;;;;;;;14.42;72.64;102170.53;5052131;28;20531;-65
2023/09/14 00:58:23;;;;;;;3.05;2.00;;;;;;;14.49;72.12;102164.97;5050196;28;20024;-65
2023/09/14 01:00:49;;;;;;;2.47;2.03;;;;;;;14.56;72.51;102165.63;5034814;28;20491;-65
2023/09/14 01:03:14;;;;;;;2.03;1.80;;;;;;;14.65;73.39;102167.09;5032345;28;20032;-65
2023/09/14 01:05:41;;;;;;;3.95;2.17;;;;;;;14.65;72.73;102170.63;5058101;22;20015;-70
2023/09/14 01:08:06;;;;;;;3.50;1.92;;;;;;;14.68;72.08;102162.50;5044670;28;20032;-70
2023/09/14 01:10:32;;;;;;;2.50;1.80;;;;;;;14.71;71.36;102157.09;5051791;28;20035;-70
2023/09/14 01:12:57;;;;;;;2.33;1.80;;;;;;;14.69;70.43;102156.28;5045757;28;20032;-70
2023/09/14 01:15:31;;;;;;;3.60;2.40;;;;;;;14.61;71.23;102158.34;5042722;28;20070;-70
2023/09/14 01:18:26;;;;;;;3.63;1.77;;;;;;;14.60;71.48;102164.59;5050569;28;20483;-70
2023/09/14 01:21:24;;;;;;;5.18;2.25;;;;;;;14.59;71.48;102170.81;5055924;28;20059;-70
2023/09/14 01:24:43;;;;;;;3.33;1.92;;;;;;;14.62;70.97;102169.88;5040351;28;20411;-71
2023/09/14 01:27:09;;;;;;;2.20;1.75;;;;;;;14.59;70.54;102165.50;4970149;28;20026;-70
2023/09/14 01:29:34;;;;;;;2.95;2.17;;;;;;;14.53;70.98;102166.59;5035596;28;20718;-70
2023/09/14 01:31:59;;;;;;;4.78;2.40;;;;;;;14.50;71.49;102173.81;5047129;28;20060;-70
2023/09/14 01:34:24;;;;;;;6.55;2.53;;;;;;;14.49;71.60;102167.63;5050165;28;20523;-70
2023/09/14 01:36:58;;;;;;;2.40;2.20;;;;;;;14.44;71.69;102171.34;5047919;28;20040;-70
2023/09/14 01:39:24;;;;;;;3.47;2.00;;;;;;;14.37;71.39;102169.84;5050165;28;20112;-70
2023/09/14 01:41:54;;;;;;;3.17;2.03;;;;;;;14.38;71.61;102160.94;5058681;28;20032;-70
2023/09/14 01:44:21;;;;;;;6.15;2.22;;;;;;;14.42;71.45;102163.44;5048899;28;20056;-70
2023/09/14 01:46:47;;;;;;;2.78;1.80;;;;;;;14.43;72.86;102157.19;5049153;28;20021;-70
2023/09/14 01:49:13;;;;;;;4.25;1.90;;;;;;;14.41;72.36;102161.69;5054978;28;20023;-70
2023/09/14 01:51:39;;;;;;;6.22;2.10;;;;;;;14.41;72.34;102158.13;5042570;28;20040;-70
2023/09/14 01:54:04;;;;;;;3.30;1.50;;;;;;;14.39;70.86;102163.53;5044743;28;20022;-70
2023/09/14 01:56:30;;;;;;;4.78;1.95;;;;;;;14.42;71.78;102165.22;5036372;28;20033;-70
2023/09/14 01:58:55;;;;;;;2.47;1.73;;;;;;;14.39;69.79;102160.88;5039879;28;20444;-70
2023/09/14 02:01:21;;;;;;;1.73;1.38;;;;;;;14.35;70.96;102163.69;5046910;28;20032;-70
2023/09/14 02:03:46;;;;;;;5.07;1.60;;;;;;;14.28;71.14;102161.25;5047061;28;20025;-70
2023/09/14 02:06:11;;;;;;;3.58;1.60;;;;;;;14.24;70.78;102169.38;5040247;28;20533;-70
2023/09/14 02:08:36;;;;;;;1.63;1.40;;;;;;;14.22;70.89;102172.09;5039578;28;20055;-70
2023/09/14 02:11:02;;;;;;;1.10;0.98;;;;;;;14.19;70.68;102166.88;5039850;28;20029;-70
2023/09/14 02:13:27;;;;;;;1.30;1.20;;;;;;;14.15;71.02;102165.25;5040941;28;20028;-70
2023/09/14 02:15:53;;;;;;;2.63;1.10;;;;;;;14.18;71.88;102165.16;5042565;28;20457;-70
2023/09/14 02:18:18;;;;;;;2.22;0.98;;;;;;;14.19;72.99;102161.56;5039126;28;20013;-70
2023/09/14 02:20:44;;;;;;;1.63;1.20;;;;;;;14.15;73.06;102161.72;5038205;28;20559;-70
2023/09/14 02:23:09;;;;;;;1.58;1.10;;;;;;;14.10;72.16;102158.34;5037159;28;20075;-70
2023/09/14 02:25:34;;;;;;;1.60;1.33;;;;;;;14.02;72.03;102156.78;5047414;28;20029;-70
2023/09/14 02:28:00;;;;;;;2.13;1.20;;;;;;;14.00;71.77;102160.44;5049977;28;20037;-70
2023/09/14 02:30:28;;;;;;;1.30;1.20;;;;;;;13.95;72.46;102151.75;5049465;28;20060;-70
2023/09/14 02:32:53;;;;;;;1.40;1.20;;;;;;;13.95;71.82;102155.28;5049364;28;20476;-70
2023/09/14 02:35:18;;;;;;;1.30;1.20;;;;;;;13.95;71.03;102157.94;5040036;28;20100;-70
2023/09/14 02:37:44;;;;;;;3.72;1.80;;;;;;;13.95;70.84;102149.09;5040381;28;20025;-71
2023/09/14 02:40:10;;;;;;;1.92;1.38;;;;;;;13.89;71.37;102151.94;5053243;28;20037;-70
2023/09/14 02:42:37;;;;;;;1.30;1.20;;;;;;;13.87;72.46;102143.16;5046101;28;20134;-70
2023/09/14 02:45:03;;;;;;;2.55;1.50;;;;;;;13.78;71.62;102150.50;5040363;28;20613;-70
2023/09/14 02:47:28;;;;;;;1.60;1.50;;;;;;;13.49;72.24;102143.47;5047085;28;20135;-70
2023/09/14 02:49:53;;;;;;;1.63;1.35;;;;;;;13.23;73.58;102151.38;5050627;28;20093;-71
2023/09/14 02:52:19;;;;;;;1.92;1.60;;;;;;;13.11;74.07;102147.28;5048470;28;20024;-70
2023/09/14 02:54:44;;;;;;;1.50;1.30;;;;;;;13.15;73.37;102148.03;5044242;28;20018;-70
2023/09/14 02:57:09;;;;;;;1.65;1.55;;;;;;;13.21;73.42;102142.56;5041281;28;20025;-70
2023/09/14 02:59:34;;;;;;;2.58;1.80;;;;;;;13.21;74.05;102137.25;5042405;28;20100;-71
2023/09/14 03:02:01;;;;;;;2.13;1.60;;;;;;;13.22;73.77;102147.84;5044158;28;20438;-70
2023/09/14 03:04:26;;;;;;;2.38;1.88;;;;;;;13.14;74.05;102141.84;5046145;28;20535;-70
2023/09/14 03:06:51;;;;;;;5.43;1.80;;;;;;;13.07;74.06;102140.31;5045325;28;20129;-70
2023/09/14 03:09:16;;;;;;;2.55;1.70;;;;;;;13.00;74.39;102138.75;5050616;28;20483;-71
2023/09/14 03:11:42;;;;;;;2.30;1.80;;;;;;;12.97;74.27;102138.84;5050253;28;20407;-70
2023/09/14 03:14:07;;;;;;;1.80;1.70;;;;;;;12.90;74.78;102143.44;5048872;28;20037;-71
2023/09/14 03:16:32;;;;;;;3.20;1.92;;;;;;;12.74;74.76;102143.03;5042197;28;20025;-70
2023/09/14 03:18:57;;;;;;;3.03;1.85;;;;;;;12.79;75.68;102139.38;5042003;28;20462;-70
2023/09/14 03:21:28;;;;;;;2.72;1.60;;;;;;;12.86;74.66;102143.59;5046892;28;20021;-70
2023/09/14 03:23:54;;;;;;;4.25;2.20;;;;;;;12.88;74.85;102147.09;5040634;28;20021;-70
2023/09/14 03:26:19;;;;;;;2.33;2.13;;;;;;;12.86;74.67;102146.25;5046584;28;20028;-70
2023/09/14 03:28:48;;;;;;;5.18;2.35;;;;;;;12.76;75.10;102145.63;5049398;28;20616;-71
2023/09/14 03:31:13;;;;;;;2.97;2.40;;;;;;;12.56;75.75;102148.84;5047960;28;20495;-70
2023/09/14 03:33:39;;;;;;;6.78;2.15;;;;;;;12.60;75.42;102161.13;5044084;28;20052;-70
2023/09/14 03:36:05;;;;;;;3.83;1.88;;;;;;;12.69;75.31;102152.03;5049704;28;20028;-70
2023/09/14 03:38:30;;;;;;;1.60;1.50;;;;;;;12.75;74.92;102152.72;5040104;28;20399;-71
2023/09/14 03:40:55;;;;;;;3.30;1.52;;;;;;;12.77;75.18;102150.03;5028224;28;20032;-70
2023/09/14 03:43:21;;;;;;;4.03;1.95;;;;;;;12.79;75.30;102148.22;5048062;28;20025;-70
2023/09/14 03:45:46;;;;;;;2.08;1.58;;;;;;;12.74;75.30;102151.00;5048607;28;20025;-70
2023/09/14 03:48:12;;;;;;;2.00;1.80;;;;;;;12.66;75.65;102149.47;5057155;28;20037;-71
2023/09/14 03:50:37;;;;;;;3.72;1.15;;;;;;;12.63;75.40;102150.41;5052208;28;20090;-71
2023/09/14 03:53:02;;;;;;;1.60;1.50;;;;;;;12.74;74.96;102145.69;5044289;28;20064;-71
2023/09/14 03:55:29;;;;;;;2.17;1.67;;;;;;;12.83;74.17;102146.34;5053760;28;20478;-70
2023/09/14 03:57:54;;;;;;;2.30;1.83;;;;;;;12.86;74.40;102151.53;5050488;28;20480;-70
2023/09/14 04:00:20;;;;;;;3.63;1.80;;;;;;;12.84;74.12;102150.72;5047764;28;20111;-70
2023/09/14 04:02:45;;;;;;;5.05;2.03;;;;;;;12.90;73.77;102153.19;5047110;28;20032;-70
2023/09/14 04:05:15;;;;;;;3.78;1.95;;;;;;;12.83;73.86;102147.22;5045138;28;20028;-70
2023/09/14 04:07:41;;;;;;;4.45;2.40;;;;;;;12.68;74.78;102145.88;5045157;28;20041;-70
2023/09/14 04:10:10;;;;;;;2.28;2.08;;;;;;;12.54;74.84;102150.66;5041565;28;20024;-70
2023/09/14 04:12:38;;;;;;;3.45;2.10;;;;;;;12.51;74.89;102150.75;5035275;28;20064;-71
2023/09/14 04:15:05;;;;;;;4.53;2.40;;;;;;;12.42;74.97;102140.41;5038628;28;20491;-71
2023/09/14 04:17:30;;;;;;;5.43;2.72;;;;;;;12.46;75.40;102147.38;5040623;28;20060;-70
2023/09/14 04:19:55;;;;;;;3.42;2.22;;;;;;;12.57;75.11;102149.72;5040229;28;20110;-70
2023/09/14 04:22:20;;;;;;;2.42;1.98;;;;;;;12.63;74.61;102138.94;5043146;28;20568;-70
2023/09/14 04:24:46;;;;;;;3.25;1.95;;;;;;;12.65;74.42;102145.94;5041481;28;20044;-71
2023/09/14 04:27:11;;;;;;;4.00;1.95;;;;;;;12.58;74.33;102139.06;5047339;28;20025;-71
2023/09/14 04:29:36;;;;;;;4.38;2.03;;;;;;;12.52;74.69;102147.19;5047013;28;20439;-71
2023/09/14 04:32:03;;;;;;;5.30;2.00;;;;;;;12.40;74.70;102144.84;5049904;28;20117;-71
2023/09/14 04:34:28;;;;;;;4.40;2.20;;;;;;;12.31;76.43;102148.66;5045065;28;20119;-71
2023/09/14 04:36:54;;;;;;;3.90;2.25;;;;;;;12.40;74.86;102142.19;5022613;28;20453;-71
2023/09/14 04:39:19;;;;;;;2.83;1.70;;;;;;;12.55;75.40;102143.59;5049668;28;20162;-71
2023/09/14 04:41:44;;;;;;;2.00;1.80;;;;;;;12.64;76.22;102152.16;5047024;28;20032;-71
2023/09/14 04:44:09;;;;;;;3.55;2.00;;;;;;;12.65;73.42;102148.59;5048740;28;20603;-71
2023/09/14 04:46:35;;;;;;;5.40;2.42;;;;;;;12.65;72.91;102145.94;5035833;28;20021;-70
2023/09/14 04:49:00;;;;;;;4.85;2.10;;;;;;;12.61;73.74;102141.63;5049131;28;20047;-71
2023/09/14 04:51:26;;;;;;;6.63;2.45;;;;;;;12.66;75.90;102145.03;5042343;28;20154;-71
2023/09/14 04:53:51;;;;;;;3.47;2.20;;;;;;;12.66;74.15;102141.50;5041722;28;20395;-71
2023/09/14 04:56:16;;;;;;;4.93;2.08;;;;;;;12.70;74.27;102153.78;5040388;28;20071;-71
2023/09/14 04:58:42;;;;;;;6.10;2.40;;;;;;;12.73;74.13;102156.34;5033481;28;20052;-71
2023/09/14 05:01:07;;;;;;;4.25;2.40;;;;;;;12.76;73.85;102150.94;5038139;28;20108;-71
2023/09/14 05:03:32;;;;;;;4.05;2.50;;;;;;;12.76;73.44;102149.16;5043389;28;20039;-71
2023/09/14 05:05:59;;;;;;;2.35;2.08;;;;;;;12.79;72.89;102155.31;5042773;28;20125;-71
2023/09/14 05:08:25;;;;;;;2.55;2.20;;;;;;;12.82;74.39;102152.53;5039063;28;20017;-71
2023/09/14 05:10:51;;;;;;;2.72;2.20;;;;;;;12.76;74.28;102150.94;5033896;28;20028;-71
2023/09/14 05:13:18;;;;;;;2.22;1.85;;;;;;;12.76;73.99;102149.16;5039623;28;20037;-71
2023/09/14 05:15:44;;;;;;;4.10;2.17;;;;;;;12.76;72.82;102153.59;5042319;28;20029;-71
2023/09/14 05:18:10;;;;;;;2.53;2.03;;;;;;;12.77;72.31;102150.88;5037999;28;20026;-71
2023/09/14 05:20:35;;;;;;;2.50;2.20;;;;;;;12.75;72.05;102150.06;5043337;28;20086;-70
2023/09/14 05:23:00;;;;;;;2.80;2.10;;;;;;;12.73;72.33;102165.19;5043911;28;20025;-71
2023/09/14 05:25:27;;;;;;;3.38;2.00;;;;;;;12.80;74.11;102162.34;5040511;28;20280;-71
2023/09/14 05:27:53;;;;;;;3.97;1.90;;;;;;;12.73;72.38;102167.84;5046164;28;20030;-71
2023/09/14 05:30:23;;;;;;;2.78;2.20;;;;;;;12.70;73.32;102167.91;5029776;28;20022;-71
2023/09/14 05:32:49;;;;;;;3.67;2.10;;;;;;;12.70;73.70;102167.91;5045572;28;20041;-70
2023/09/14 05:35:14;;;;;;;2.35;2.10;;;;;;;12.75;72.87;102173.09;5047042;28;20021;-71
2023/09/14 05:37:40;;;;;;;4.93;2.10;;;;;;;12.72;72.99;102181.13;5029517;28;20036;-70
2023/09/14 05:40:12;;;;;;;2.70;2.00;;;;;;;12.67;72.88;102183.91;5039840;28;20028;-71
2023/09/14 05:42:38;;;;;;;1.95;1.70;;;;;;;12.62;72.85;102184.94;5039431;28;20114;-71
2023/09/14 05:45:05;;;;;;;2.65;2.20;;;;;;;12.52;73.39;102192.28;5044491;28;20030;-71
2023/09/14 05:47:31;;;;;;;2.42;1.77;;;;;;;12.45;74.19;102180.97;5041276;28;20367;-71
2023/09/14 05:49:56;;;;;;;3.35;1.70;;;;;;;12.45;73.70;102183.63;5044057;28;20047;-71
2023/09/14 05:52:22;;;;;;;5.18;2.20;;;;;;;12.35;74.44;102186.53;5049708;28;20032;-71
2023/09/14 05:54:47;;;;;;;2.42;1.92;;;;;;;12.35;74.39;102187.41;5047339;28;20484;-71
2023/09/14 05:57:14;;;;;;;2.17;1.95;;;;;;;12.37;75.16;102182.09;5049928;28;20017;-71
2023/09/14 05:59:39;;;;;;;3.17;2.42;;;;;;;12.35;74.76;102186.53;5029811;28;20066;-71
2023/09/14 06:02:05;;;;;;;3.63;2.08;;;;;;;12.48;74.58;102182.66;5025501;28;20110;-70
2023/09/14 06:04:30;;;;;;;5.75;2.90;;;;;;;12.55;75.20;102194.00;5056997;28;20023;-70
2023/09/14 06:06:56;;;;;;;3.22;2.05;;;;;;;12.60;74.86;102187.66;5050075;28;20052;-71
2023/09/14 06:09:21;;;;;;;3.80;2.40;;;;;;;12.52;75.07;102192.28;5051156;28;20283;-71
2023/09/14 06:11:46;;;;;;;2.63;2.22;;;;;;;12.55;75.40;102188.69;5054891;28;21035;-70
2023/09/14 06:14:12;;;;;;;5.35;2.30;;;;;;;12.70;75.32;102194.44;5043134;28;20037;-71
2023/09/14 06:16:37;;;;;;;3.05;2.40;;;;;;;12.83;75.03;102195.00;5047171;28;20108;-71
2023/09/14 06:19:02;;;;;;;5.38;2.65;;;;;;;13.01;74.80;102189.16;5049728;28;20036;-70
2023/09/14 06:21:28;;;;;;;3.80;2.40;;;;;;;13.16;75.59;102195.81;5050869;28;20392;-71
2023/09/14 06:23:53;;;;;;;2.97;1.92;;;;;;;13.31;75.37;102196.28;5041240;28;20032;-71
2023/09/14 06:26:18;;;;;;;4.35;2.53;;;;;;;13.43;74.97;102196.81;5046139;28;20165;-70
2023/09/14 06:28:44;;;;;;;3.45;2.50;;;;;;;13.49;75.50;102195.75;5047123;28;20024;-71
2023/09/14 06:31:09;;;;;;;3.75;2.85;;;;;;;13.50;75.54;102197.47;5044218;28;20104;-71
2023/09/14 06:33:34;;;;;;;3.70;2.72;;;;;;;13.56;75.59;102193.75;5041848;28;20472;-71
2023/09/14 06:35:59;;;;;;;5.32;3.28;;;;;;;13.58;76.15;102194.59;5042296;28;20048;-71
2023/09/14 06:38:25;;;;;;;4.53;3.17;;;;;;;13.67;75.83;102197.84;5037741;28;20092;-71
2023/09/14 06:40:50;;;;;;;5.90;3.58;;;;;;;13.75;76.46;102202.88;5054803;28;20032;-71
2023/09/14 06:43:16;;;;;;;4.38;3.67;;;;;;;13.78;76.34;102200.16;5050862;28;20074;-70
2023/09/14 06:45:41;;;;;;;4.50;3.72;;;;;;;13.77;77.77;102196.63;5057190;28;20029;-71
2023/09/14 06:48:06;;;;;;;6.05;4.05;;;;;;;13.88;80.54;102190.94;5061756;28;20024;-70
2023/09/14 06:50:32;;;;;;;6.22;4.10;;;;;;;13.94;78.46;102197.84;5056113;28;20386;-71
2023/09/14 06:52:57;;;;;;;8.50;4.18;;;;;;;14.07;78.49;102199.19;5023236;28;20033;-71
2023/09/14 06:55:22;;;;;;;10.23;4.93;;;;;;;14.15;78.80;102202.47;5054825;28;20446;-71
2023/09/14 06:57:47;;;;;;;9.35;5.15;;;;;;;14.19;78.28;102200.59;5042742;28;20200;-71
2023/09/14 07:00:20;;;;;;;10.57;5.38;;;;;;;14.27;78.90;102196.75;5038647;28;20454;-71
2023/09/14 07:02:49;;;;;;;9.63;5.10;;;;;;;14.41;79.51;102198.03;5044772;28;20029;-70
2023/09/14 07:05:14;;;;;;;7.88;5.28;;;;;;;14.54;79.56;102204.72;5038555;28;20028;-71
2023/09/14 07:07:41;;;;;;;9.70;5.63;;;;;;;14.64;79.16;102211.50;5050306;28;20603;-70
2023/09/14 07:10:08;;;;;;;8.02;5.53;;;;;;;14.75;79.11;102209.31;5041111;28;20562;-71
2023/09/14 07:12:35;;;;;;;13.00;5.65;;;;;;;14.91;79.11;102200.75;5050388;28;20032;-71
2023/09/14 07:15:00;;;;;;;11.15;6.35;;;;;;;15.05;78.96;102209.09;5039888;28;20439;-71
2023/09/14 07:17:26;;;;;;;9.35;5.65;;;;;;;15.12;78.62;102202.63;5053068;28;20025;-71
2023/09/14 07:19:51;;;;;;;9.73;5.28;;;;;;;15.21;78.34;102201.44;5049377;28;20079;-70
2023/09/14 07:22:18;;;;;;;11.95;5.40;;;;;;;15.32;77.65;102200.06;5052010;28;20059;-70
2023/09/14 07:24:43;;;;;;;18.08;6.28;;;;;;;15.42;78.93;102197.91;5050916;28;20020;-70
2023/09/14 07:27:08;;;;;;;9.93;5.55;;;;;;;15.50;78.95;102210.97;5048379;28;20033;-70
2023/09/14 07:29:34;;;;;;;8.10;6.28;;;;;;;15.66;79.41;102203.25;5045950;28;20056;-70
2023/09/14 07:31:59;;;;;;;10.95;6.57;;;;;;;15.89;79.36;102208.53;5057193;28;20029;-71
2023/09/14 07:34:25;;;;;;;12.85;6.75;;;;;;;16.14;78.68;102207.56;5043184;28;20091;-70
2023/09/14 07:36:50;;;;;;;13.32;7.10;;;;;;;16.29;77.62;102205.09;5055122;28;20497;-70
2023/09/14 07:39:15;;;;;;;12.65;6.85;;;;;;;16.53;77.24;102205.84;5050070;28;20488;-70
2023/09/14 07:41:41;;;;;;;11.95;7.05;;;;;;;16.75;76.43;102213.81;5047043;28;20025;-70
2023/09/14 07:44:07;;;;;;;9.25;6.75;;;;;;;16.90;75.90;102214.94;5061743;28;20020;-70
2023/09/14 07:46:33;;;;;;;8.45;6.43;;;;;;;17.18;74.75;102213.69;5040294;28;20029;-70
2023/09/14 07:48:59;;;;;;;13.70;7.05;;;;;;;17.50;72.95;102213.06;5032380;28;20109;-70
2023/09/14 07:51:24;;;;;;;12.93;6.72;;;;;;;17.85;71.02;102211.38;5050951;28;20421;-70
2023/09/14 07:53:49;;;;;;;16.38;7.10;;;;;;;18.04;70.79;102216.69;5046330;28;20112;-70
2023/09/14 07:56:15;;;;;;;9.40;6.20;;;;;;;18.18;70.90;102220.50;5054890;28;20108;-70
2023/09/14 07:58:42;;;;;;;11.98;6.45;;;;;;;18.25;70.00;102221.94;5047779;28;20127;-70
2023/09/14 08:01:07;;;;;;;12.00;6.13;;;;;;;18.33;69.66;102219.75;5045388;28;20843;-70
2023/09/14 08:03:32;;;;;;;12.55;6.95;;;;;;;18.42;69.46;102232.69;5053030;28;20028;-71
2023/09/14 08:05:57;;;;;;;13.75;6.75;;;;;;;18.49;69.73;102223.34;5041579;28;20076;-70
2023/09/14 08:08:23;;;;;;;13.38;6.50;;;;;;;18.54;69.54;102223.13;5058138;28;20522;-70
2023/09/14 08:10:52;;;;;;;9.65;6.45;;;;;;;18.69;68.95;102227.72;5055222;28;20032;-71
2023/09/14 08:13:18;;;;;;;9.63;6.50;;;;;;;18.92;68.31;102225.66;5046079;28;20531;-70
2023/09/14 08:15:43;;;;;;;16.45;7.30;;;;;;;19.06;68.10;102215.03;5039142;28;20128;-70
2023/09/14 08:18:09;;;;;;;11.25;6.55;;;;;;;19.28;66.94;102214.75;5053778;28;20530;-70
2023/09/14 08:20:45;;;;;;;14.80;7.20;;;;;;;19.46;66.45;102218.25;5060012;28;20061;-70
2023/09/14 08:23:12;;;;;;;11.55;6.65;;;;;;;19.70;66.57;102216.91;5051786;28;20030;-70
2023/09/14 08:25:43;;;;;;;14.85;7.13;;;;;;;19.74;66.02;102225.66;5040938;28;20459;-70
2023/09/14 08:28:10;;;;;;;11.88;6.93;;;;;;;19.87;65.21;102224.00;5043376;28;20091;-70
2023/09/14 08:30:37;;;;;;;13.02;7.20;;;;;;;19.90;65.51;102215.75;5043491;28;20487;-70
2023/09/14 08:33:02;;;;;;;11.63;6.82;;;;;;;20.15;65.41;102217.91;5049106;28;20039;-71
2023/09/14 08:35:31;;;;;;;14.13;7.47;;;;;;;20.20;64.22;102231.91;5044085;28;20395;-70
2023/09/14 08:37:57;;;;;;;9.52;6.32;;;;;;;20.69;63.05;102225.47;5041807;28;20025;-71
2023/09/14 08:40:23;;;;;;;11.55;6.95;;;;;;;21.18;61.48;102228.69;5045136;28;20028;-71
2023/09/14 08:42:53;;;;;;;11.95;7.25;;;;;;;21.45;60.22;102227.91;5056767;28;20032;-71
2023/09/14 08:45:32;;;;;;;15.27;7.15;;;;;;;21.78;60.75;102231.13;5048143;28;20472;-71
2023/09/14 08:48:02;;;;;;;12.70;6.53;;;;;;;22.00;57.83;102230.56;5050527;28;20103;-71
2023/09/14 08:50:32;;;;;;;12.35;6.97;;;;;;;22.20;57.70;102231.97;5043847;28;20549;-71
2023/09/14 08:52:58;;;;;;;12.88;7.65;;;;;;;22.06;58.50;102229.31;5046149;28;20033;-71
2023/09/14 08:55:29;;;;;;;8.93;6.10;;;;;;;22.08;57.95;102238.16;5043062;28;20043;-70
2023/09/14 08:57:55;;;;;;;11.98;6.82;;;;;;;22.13;59.49;102225.25;5041389;28;20535;-71
2023/09/14 09:00:24;;;;;;;14.43;7.55;;;;;;;22.43;57.25;102227.72;5055657;28;20032;-71
2023/09/14 09:02:52;;;;;;;15.13;7.75;;;;;;;22.77;55.84;102217.31;5047707;28;20026;-71
2023/09/14 09:05:19;;;;;;;12.40;7.70;;;;;;;23.03;55.65;102220.88;5048928;28;20052;-72
2023/09/14 09:07:47;;;;;;;13.20;7.20;;;;;;;23.53;53.40;102221.78;5041342;28;20099;-71
2023/09/14 09:10:29;;;;;;;12.52;7.65;;;;;;;23.92;54.35;102218.00;5050327;28;20031;-71
2023/09/14 09:12:58;;;;;;;;;;;;;;;24.80;55.06;102223.88;5046600;28;20898;-71
2023/09/14 09:15:25;;;;;;;11.70;7.40;;;;;;;24.83;50.23;102211.97;5047572;28;19940;-71
2023/09/14 09:17:54;;;;;;;12.70;7.30;;;;;;;24.97;50.61;102210.88;5047453;28;20515;-72
2023/09/14 09:20:22;;;;;;;16.48;8.82;;;;;;;25.06;50.37;102208.28;5037406;28;20064;-72
2023/09/14 09:22:52;;;;;;;13.80;8.52;;;;;;;25.67;46.70;102207.91;5034304;28;20040;-71
2023/09/14 09:25:19;;;;;;;14.90;8.65;;;;;;;25.76;47.45;102207.16;5020540;28;20025;-71
2023/09/14 09:27:45;;;;;;;12.95;8.63;;;;;;;26.17;45.53;102202.84;5036698;28;20029;-70
2023/09/14 09:30:14;;;;;;;15.85;8.10;;;;;;;26.82;46.59;102209.91;5041905;28;20048;-70
2023/09/14 09:32:42;;;;;;;13.10;7.13;;;;;;;27.32;42.07;102204.56;5039810;28;20469;-70
2023/09/14 09:35:20;;;;;;;14.98;7.57;;;;;;;27.62;44.08;102210.97;5039571;28;20029;-71
2023/09/14 09:37:46;;;;;;;12.60;8.20;;;;;;;27.70;42.98;102211.97;5039111;28;20101;-70
2023/09/14 09:40:27;;;;;;;14.82;7.70;;;;;;;28.10;42.02;102202.88;5050969;28;20791;-70
2023/09/14 09:42:53;;;;;;;9.90;6.85;;;;;;;28.27;40.47;102206.75;5045895;28;20060;-70
2023/09/14 09:45:23;;;;;;;11.65;6.93;;;;;;;28.84;38.61;102202.22;5049650;28;20522;-70
2023/09/14 09:47:49;;;;;;;6.38;4.63;;;;;;;29.79;37.28;102200.22;5048619;28;20025;-70
2023/09/14 09:50:15;;;;;;;12.00;6.07;;;;;;;30.26;34.37;102208.19;5047023;28;20033;-71
2023/09/14 09:52:43;;;;;;;8.73;5.82;;;;;;;30.73;34.19;102201.44;5043103;28;20025;-70
2023/09/14 09:55:21;;;;;;;11.00;6.70;;;;;;;30.90;35.91;102196.91;5033333;28;20021;-70
2023/09/14 09:57:51;;;;;;;10.77;6.90;;;;;;;31.29;33.23;102199.19;5049689;28;20025;-70
2023/09/14 10:00:19;;;;;;;8.52;5.05;;;;;;;31.90;30.99;102189.81;5036922;28;20071;-69
2023/09/14 10:02:49;;;;;;;11.13;6.68;;;;;;;32.24;30.77;102194.28;5035647;28;20486;-70
2023/09/14 10:05:15;;;;;;;8.90;5.60;;;;;;;32.61;30.84;102198.38;5035975;28;20850;-70
2023/09/14 10:07:41;;;;;;;7.47;4.93;;;;;;;33.26;32.25;102198.22;5035621;28;20120;-71
2023/09/14 10:10:12;;;;;;;6.63;4.72;;;;;;;31.62;32.19;102197.44;5037744;28;20048;-71
2023/09/14 10:12:38;;;;;;;6.45;3.90;;;;;;;31.02;31.10;102189.31;5047617;28;20098;-70
2023/09/14 10:15:05;;;;;;;7.40;3.60;;;;;;;31.55;30.15;102192.78;5050418;28;20495;-71
2023/09/14 10:17:31;;;;;;;7.13;4.15;;;;;;;32.29;30.19;102194.63;5028251;28;20025;-71
2023/09/14 10:20:01;;;;;;;10.27;5.70;;;;;;;32.43;31.72;102191.22;5040521;28;20036;-70
2023/09/14 10:22:27;;;;;;;8.68;5.15;;;;;;;32.50;29.85;102189.50;5050216;28;20035;-70
2023/09/14 10:24:54;;;;;;;7.60;4.82;;;;;;;33.09;29.76;102188.34;5045184;28;20593;-71
2023/09/14 10:27:20;;;;;;;8.55;5.32;;;;;;;32.90;27.92;102189.56;5047544;28;20117;-71
2023/09/14 10:29:45;;;;;;;9.00;5.07;;;;;;;31.93;30.17;102192.19;5052533;28;20111;-70
2023/09/14 10:32:11;;;;;;;8.43;5.30;;;;;;;32.08;30.30;102188.78;5040816;28;20391;-70
2023/09/14 10:34:41;;;;;;;8.02;5.13;;;;;;;32.25;30.03;102191.34;5048074;28;20499;-71
2023/09/14 10:37:09;;;;;;;5.28;4.00;;;;;;;32.81;28.94;102187.88;5040862;28;20112;-73
2023/09/14 10:39:36;;;;;;;6.15;4.10;;;;;;;32.60;28.69;102174.78;5044502;28;20827;-72
2023/09/14 10:42:01;;;;;;;6.88;4.47;;;;;;;31.86;27.94;102176.66;5045758;28;20030;-72
2023/09/14 10:44:29;;;;;;;7.72;4.10;;;;;;;29.20;32.34;102176.03;5051622;28;20091;-72
2023/09/14 10:46:57;;;;;;;6.72;4.07;;;;;;;28.32;33.89;102168.22;5040369;28;20611;-71
2023/09/14 10:49:27;;;;;;;6.72;3.92;;;;;;;27.80;34.08;102176.69;5044418;28;20029;-71
2023/09/14 10:51:54;;;;;;;4.82;3.50;;;;;;;27.57;33.47;102175.19;5047538;28;20033;-71
2023/09/14 10:54:24;;;;;;;6.05;3.90;;;;;;;27.23;35.58;102167.38;5042790;28;20112;-71
2023/09/14 10:56:57;;;;;;;6.50;3.17;;;;;;;26.99;37.12;102164.09;5047992;28;20037;-71
2023/09/14 10:59:54;;;;;;;5.72;4.30;;;;;;;26.96;37.73;102160.69;5043060;28;20063;-71
2023/09/14 11:02:45;;;;;;;6.75;4.10;;;;;;;27.25;37.49;102162.69;5046221;28;20612;-72
2023/09/14 11:05:21;;;;;;;5.22;3.85;;;;;;;27.65;35.50;102168.06;5049242;28;20033;-72
2023/09/14 11:07:53;;;;;;;5.05;3.90;;;;;;;28.23;34.39;102149.06;5035061;28;20049;-72
2023/09/14 11:10:21;;;;;;;6.15;4.00;;;;;;;28.67;33.39;102149.41;5042853;28;20624;-72
2023/09/14 11:12:47;;;;;;;6.20;3.65;;;;;;;28.48;33.97;102157.63;5029235;28;20057;-72
2023/09/14 11:15:20;;;;;;;6.63;3.60;;;;;;;28.37;35.55;102157.81;5037136;28;20067;-72
2023/09/14 11:17:47;;;;;;;5.75;3.38;;;;;;;27.91;34.27;102152.06;5031889;28;20025;-69
2023/09/14 11:20:24;;;;;;;6.95;3.78;;;;;;;27.39;37.77;102161.44;5045103;28;20480;-70
2023/09/14 11:22:52;;;;;;;6.15;3.72;;;;;;;26.67;38.29;102156.94;5039144;28;20528;-69